sensor_id;sensor_type;location;lat;lon;timestamp;P1;durP1;ratioP1;P2;durP2;ratioP2
79640;SDS011;69115;49.904;14.390;2023-10-09T00:00:24;14.52;;;9.43;;
79640;SDS011;69115;49.904;14.390;2023-10-09T00:03:15;18.10;;;9.65;;
79640;SDS011;69115;49.904;14.390;2023-10-09T00:05:42;18.70;;;9.68;;
79640;SDS011;69115;49.904;14.390;2023-10-09T00:08:11;17.60;;;10.18;;
79640;SDS011;69115;49.904;14.390;2023-10-09T00:10:56;18.65;;;10.95;;
79640;SDS011;69115;49.904;14.390;2023-10-09T00:13:24;17.58;;;10.35;;
79640;SDS011;69115;49.904;14.390;2023-10-09T00:15:53;17.95;;;11.15;;
79640;SDS011;69115;49.904;14.390;2023-10-09T00:18:27;21.40;;;11.98;;
79640;SDS011;69115;49.904;14.390;2023-10-09T00:20:58;18.85;;;10.88;;
79640;SDS011;69115;49.904;14.390;2023-10-09T00:23:38;17.25;;;10.45;;
79640;SDS011;69115;49.904;14.390;2023-10-09T00:26:04;18.08;;;11.00;;
79640;SDS011;69115;49.904;14.390;2023-10-09T00:28:41;16.90;;;9.80;;
79640;SDS011;69115;49.904;14.390;2023-10-09T00:31:08;16.73;;;10.40;;
79640;SDS011;69115;49.904;14.390;2023-10-09T00:33:39;18.17;;;9.80;;
79640;SDS011;69115;49.904;14.390;2023-10-09T00:36:08;17.25;;;9.60;;
79640;SDS011;69115;49.904;14.390;2023-10-09T00:38:34;16.98;;;9.45;;
79640;SDS011;69115;49.904;14.390;2023-10-09T00:41:10;19.60;;;10.05;;
79640;SDS011;69115;49.904;14.390;2023-10-09T00:43:36;16.48;;;9.85;;
79640;SDS011;69115;49.904;14.390;2023-10-09T00:46:02;17.02;;;9.35;;
79640;SDS011;69115;49.904;14.390;2023-10-09T00:48:58;19.52;;;9.90;;
79640;SDS011;69115;49.904;14.390;2023-10-09T00:51:28;16.88;;;10.25;;
79640;SDS011;69115;49.904;14.390;2023-10-09T00:54:00;13.93;;;8.55;;
79640;SDS011;69115;49.904;14.390;2023-10-09T00:56:32;16.10;;;9.38;;
79640;SDS011;69115;49.904;14.390;2023-10-09T00:59:06;14.23;;;8.65;;
79640;SDS011;69115;49.904;14.390;2023-10-09T01:01:45;16.40;;;8.90;;
79640;SDS011;69115;49.904;14.390;2023-10-09T01:04:20;14.25;;;8.20;;
79640;SDS011;69115;49.904;14.390;2023-10-09T01:06:47;16.38;;;9.20;;
79640;SDS011;69115;49.904;14.390;2023-10-09T01:09:17;14.80;;;8.50;;
79640;SDS011;69115;49.904;14.390;2023-10-09T01:11:44;14.40;;;8.35;;
79640;SDS011;69115;49.904;14.390;2023-10-09T01:14:24;13.65;;;8.23;;
79640;SDS011;69115;49.904;14.390;2023-10-09T01:16:49;14.85;;;9.05;;
79640;SDS011;69115;49.904;14.390;2023-10-09T01:19:19;13.40;;;8.65;;
79640;SDS011;69115;49.904;14.390;2023-10-09T01:21:52;13.95;;;8.20;;
79640;SDS011;69115;49.904;14.390;2023-10-09T01:24:27;16.25;;;8.77;;
79640;SDS011;69115;49.904;14.390;2023-10-09T01:26:56;13.85;;;8.15;;
79640;SDS011;69115;49.904;14.390;2023-10-09T01:29:24;15.48;;;8.00;;
79640;SDS011;69115;49.904;14.390;2023-10-09T01:31:53;16.73;;;9.10;;
79640;SDS011;69115;49.904;14.390;2023-10-09T01:37:01;14.45;;;8.95;;
79640;SDS011;69115;49.904;14.390;2023-10-09T01:39:30;14.68;;;8.98;;
79640;SDS011;69115;49.904;14.390;2023-10-09T01:41:56;17.73;;;9.95;;
79640;SDS011;69115;49.904;14.390;2023-10-09T01:44:28;13.13;;;8.23;;
79640;SDS011;69115;49.904;14.390;2023-10-09T01:47:03;18.60;;;8.75;;
79640;SDS011;69115;49.904;14.390;2023-10-09T01:49:38;15.75;;;8.95;;
79640;SDS011;69115;49.904;14.390;2023-10-09T01:52:09;15.85;;;8.50;;
79640;SDS011;69115;49.904;14.390;2023-10-09T01:54:37;14.52;;;8.57;;
79640;SDS011;69115;49.904;14.390;2023-10-09T01:57:04;15.43;;;8.93;;
79640;SDS011;69115;49.904;14.390;2023-10-09T01:59:38;12.40;;;8.32;;
79640;SDS011;69115;49.904;14.390;2023-10-09T02:02:10;14.20;;;7.93;;
79640;SDS011;69115;49.904;14.390;2023-10-09T02:04:53;13.88;;;8.25;;
79640;SDS011;69115;49.904;14.390;2023-10-09T02:07:41;14.45;;;7.38;;
79640;SDS011;69115;49.904;14.390;2023-10-09T02:10:10;15.75;;;7.95;;
79640;SDS011;69115;49.904;14.390;2023-10-09T02:13:01;14.88;;;8.27;;
79640;SDS011;69115;49.904;14.390;2023-10-09T02:15:37;13.13;;;7.82;;
79640;SDS011;69115;49.904;14.390;2023-10-09T02:18:10;11.95;;;7.32;;
79640;SDS011;69115;49.904;14.390;2023-10-09T02:23:24;14.20;;;7.50;;
79640;SDS011;69115;49.904;14.390;2023-10-09T02:25:58;13.23;;;7.22;;
79640;SDS011;69115;49.904;14.390;2023-10-09T02:28:26;13.27;;;7.25;;
79640;SDS011;69115;49.904;14.390;2023-10-09T02:30:57;13.05;;;6.78;;
79640;SDS011;69115;49.904;14.390;2023-10-09T02:33:25;12.00;;;6.60;;
79640;SDS011;69115;49.904;14.390;2023-10-09T02:35:54;11.02;;;6.80;;
79640;SDS011;69115;49.904;14.390;2023-10-09T02:38:20;12.60;;;6.55;;
79640;SDS011;69115;49.904;14.390;2023-10-09T02:40:51;9.70;;;6.68;;
79640;SDS011;69115;49.904;14.390;2023-10-09T02:43:29;14.10;;;7.38;;
79640;SDS011;69115;49.904;14.390;2023-10-09T02:46:09;16.70;;;7.13;;
79640;SDS011;69115;49.904;14.390;2023-10-09T02:48:54;11.07;;;6.70;;
79640;SDS011;69115;49.904;14.390;2023-10-09T02:51:24;16.80;;;7.43;;
79640;SDS011;69115;49.904;14.390;2023-10-09T02:53:51;11.15;;;6.57;;
79640;SDS011;69115;49.904;14.390;2023-10-09T02:56:21;13.48;;;7.03;;
79640;SDS011;69115;49.904;14.390;2023-10-09T02:58:55;14.93;;;6.38;;
79640;SDS011;69115;49.904;14.390;2023-10-09T03:01:37;16.13;;;6.80;;
79640;SDS011;69115;49.904;14.390;2023-10-09T03:04:04;12.65;;;6.55;;
79640;SDS011;69115;49.904;14.390;2023-10-09T03:06:30;11.40;;;6.00;;
79640;SDS011;69115;49.904;14.390;2023-10-09T03:08:57;12.80;;;6.47;;
79640;SDS011;69115;49.904;14.390;2023-10-09T03:11:22;10.15;;;6.20;;
79640;SDS011;69115;49.904;14.390;2023-10-09T03:13:48;10.73;;;6.10;;
79640;SDS011;69115;49.904;14.390;2023-10-09T03:16:14;13.10;;;6.30;;
79640;SDS011;69115;49.904;14.390;2023-10-09T03:18:41;9.50;;;5.65;;
79640;SDS011;69115;49.904;14.390;2023-10-09T03:21:07;9.73;;;5.80;;
79640;SDS011;69115;49.904;14.390;2023-10-09T03:23:33;9.85;;;5.68;;
79640;SDS011;69115;49.904;14.390;2023-10-09T03:25:59;10.45;;;5.63;;
79640;SDS011;69115;49.904;14.390;2023-10-09T03:28:24;10.88;;;5.50;;
79640;SDS011;69115;49.904;14.390;2023-10-09T03:30:50;11.63;;;5.30;;
79640;SDS011;69115;49.904;14.390;2023-10-09T03:33:16;12.18;;;5.82;;
79640;SDS011;69115;49.904;14.390;2023-10-09T03:35:42;9.98;;;6.00;;
79640;SDS011;69115;49.904;14.390;2023-10-09T03:38:08;9.23;;;5.82;;
79640;SDS011;69115;49.904;14.390;2023-10-09T03:40:43;11.52;;;5.53;;
79640;SDS011;69115;49.904;14.390;2023-10-09T03:43:09;10.25;;;5.47;;
79640;SDS011;69115;49.904;14.390;2023-10-09T03:45:38;11.63;;;5.72;;
79640;SDS011;69115;49.904;14.390;2023-10-09T03:48:10;10.80;;;6.10;;
79640;SDS011;69115;49.904;14.390;2023-10-09T03:50:47;10.52;;;5.72;;
79640;SDS011;69115;49.904;14.390;2023-10-09T03:53:13;9.27;;;5.63;;
79640;SDS011;69115;49.904;14.390;2023-10-09T03:55:39;9.35;;;6.20;;
79640;SDS011;69115;49.904;14.390;2023-10-09T03:58:05;9.68;;;6.05;;
79640;SDS011;69115;49.904;14.390;2023-10-09T04:00:32;11.23;;;5.90;;
79640;SDS011;69115;49.904;14.390;2023-10-09T04:03:06;10.65;;;6.10;;
79640;SDS011;69115;49.904;14.390;2023-10-09T04:05:31;11.38;;;5.63;;
79640;SDS011;69115;49.904;14.390;2023-10-09T04:07:57;9.52;;;5.43;;
79640;SDS011;69115;49.904;14.390;2023-10-09T04:10:27;13.98;;;6.50;;
79640;SDS011;69115;49.904;14.390;2023-10-09T04:13:08;12.00;;;5.53;;
79640;SDS011;69115;49.904;14.390;2023-10-09T04:15:37;11.35;;;6.05;;
79640;SDS011;69115;49.904;14.390;2023-10-09T04:18:02;12.77;;;5.80;;
79640;SDS011;69115;49.904;14.390;2023-10-09T04:20:30;10.98;;;5.68;;
79640;SDS011;69115;49.904;14.390;2023-10-09T04:22:58;11.18;;;5.88;;
79640;SDS011;69115;49.904;14.390;2023-10-09T04:25:30;11.57;;;5.97;;
79640;SDS011;69115;49.904;14.390;2023-10-09T04:28:10;11.27;;;5.90;;
79640;SDS011;69115;49.904;14.390;2023-10-09T04:30:47;8.32;;;5.65;;
79640;SDS011;69115;49.904;14.390;2023-10-09T04:33:18;9.48;;;5.30;;
79640;SDS011;69115;49.904;14.390;2023-10-09T04:36:15;9.82;;;5.80;;
79640;SDS011;69115;49.904;14.390;2023-10-09T04:38:48;8.32;;;5.35;;
79640;SDS011;69115;49.904;14.390;2023-10-09T04:41:32;9.68;;;5.40;;
79640;SDS011;69115;49.904;14.390;2023-10-09T04:44:18;10.93;;;5.93;;
79640;SDS011;69115;49.904;14.390;2023-10-09T04:46:45;9.52;;;5.82;;
79640;SDS011;69115;49.904;14.390;2023-10-09T04:49:31;11.13;;;5.45;;
79640;SDS011;69115;49.904;14.390;2023-10-09T04:52:10;8.13;;;5.40;;
79640;SDS011;69115;49.904;14.390;2023-10-09T04:54:44;10.57;;;5.55;;
79640;SDS011;69115;49.904;14.390;2023-10-09T04:57:28;11.95;;;4.95;;
79640;SDS011;69115;49.904;14.390;2023-10-09T04:59:54;11.20;;;4.72;;
79640;SDS011;69115;49.904;14.390;2023-10-09T05:02:23;9.18;;;5.18;;
79640;SDS011;69115;49.904;14.390;2023-10-09T05:04:49;8.70;;;4.93;;
79640;SDS011;69115;49.904;14.390;2023-10-09T05:07:37;8.98;;;5.35;;
79640;SDS011;69115;49.904;14.390;2023-10-09T05:10:19;8.20;;;4.95;;
79640;SDS011;69115;49.904;14.390;2023-10-09T05:12:49;9.27;;;5.05;;
79640;SDS011;69115;49.904;14.390;2023-10-09T05:15:24;12.15;;;5.00;;
79640;SDS011;69115;49.904;14.390;2023-10-09T05:17:55;8.63;;;4.90;;
79640;SDS011;69115;49.904;14.390;2023-10-09T05:20:34;7.97;;;4.70;;
79640;SDS011;69115;49.904;14.390;2023-10-09T05:23:17;6.40;;;4.18;;
79640;SDS011;69115;49.904;14.390;2023-10-09T05:25:50;7.88;;;4.68;;
79640;SDS011;69115;49.904;14.390;2023-10-09T05:28:19;7.18;;;4.70;;
79640;SDS011;69115;49.904;14.390;2023-10-09T05:30:57;7.07;;;4.88;;
79640;SDS011;69115;49.904;14.390;2023-10-09T05:33:33;9.02;;;4.88;;
79640;SDS011;69115;49.904;14.390;2023-10-09T05:36:02;9.20;;;4.25;;
79640;SDS011;69115;49.904;14.390;2023-10-09T05:38:47;8.02;;;4.97;;
79640;SDS011;69115;49.904;14.390;2023-10-09T05:41:23;7.65;;;4.47;;
79640;SDS011;69115;49.904;14.390;2023-10-09T05:44:08;6.65;;;4.10;;
79640;SDS011;69115;49.904;14.390;2023-10-09T05:46:52;7.88;;;4.80;;
79640;SDS011;69115;49.904;14.390;2023-10-09T05:49:36;7.72;;;4.80;;
79640;SDS011;69115;49.904;14.390;2023-10-09T05:52:23;7.28;;;4.28;;
79640;SDS011;69115;49.904;14.390;2023-10-09T05:54:58;6.63;;;4.13;;
79640;SDS011;69115;49.904;14.390;2023-10-09T05:57:42;8.55;;;4.72;;
79640;SDS011;69115;49.904;14.390;2023-10-09T06:00:26;7.03;;;4.25;;
79640;SDS011;69115;49.904;14.390;2023-10-09T06:03:10;8.05;;;4.80;;
79640;SDS011;69115;49.904;14.390;2023-10-09T06:05:49;8.52;;;5.03;;
79640;SDS011;69115;49.904;14.390;2023-10-09T06:08:19;8.27;;;4.95;;
79640;SDS011;69115;49.904;14.390;2023-10-09T06:11:03;8.35;;;5.20;;
79640;SDS011;69115;49.904;14.390;2023-10-09T06:13:49;6.70;;;5.00;;
79640;SDS011;69115;49.904;14.390;2023-10-09T06:16:27;10.65;;;5.05;;
79640;SDS011;69115;49.904;14.390;2023-10-09T06:19:09;6.88;;;4.65;;
79640;SDS011;69115;49.904;14.390;2023-10-09T06:21:51;7.80;;;4.75;;
79640;SDS011;69115;49.904;14.390;2023-10-09T06:24:29;8.82;;;5.13;;
79640;SDS011;69115;49.904;14.390;2023-10-09T06:27:06;33.78;;;19.50;;
79640;SDS011;69115;49.904;14.390;2023-10-09T06:29:31;23.95;;;14.48;;
79640;SDS011;69115;49.904;14.390;2023-10-09T06:32:09;19.13;;;10.85;;
79640;SDS011;69115;49.904;14.390;2023-10-09T06:34:41;12.95;;;7.03;;
79640;SDS011;69115;49.904;14.390;2023-10-09T06:37:12;11.15;;;6.32;;
79640;SDS011;69115;49.904;14.390;2023-10-09T06:39:43;13.32;;;6.78;;
79640;SDS011;69115;49.904;14.390;2023-10-09T06:42:24;10.85;;;6.78;;
79640;SDS011;69115;49.904;14.390;2023-10-09T06:47:48;13.73;;;6.63;;
79640;SDS011;69115;49.904;14.390;2023-10-09T06:50:53;10.43;;;6.20;;
79640;SDS011;69115;49.904;14.390;2023-10-09T06:53:28;8.70;;;5.50;;
79640;SDS011;69115;49.904;14.390;2023-10-09T06:56:14;11.25;;;5.68;;
79640;SDS011;69115;49.904;14.390;2023-10-09T06:58:55;8.10;;;5.53;;
79640;SDS011;69115;49.904;14.390;2023-10-09T07:01:40;12.00;;;5.22;;
79640;SDS011;69115;49.904;14.390;2023-10-09T07:04:09;8.50;;;5.30;;
79640;SDS011;69115;49.904;14.390;2023-10-09T07:07:04;11.30;;;5.53;;
79640;SDS011;69115;49.904;14.390;2023-10-09T07:09:37;10.30;;;5.72;;
79640;SDS011;69115;49.904;14.390;2023-10-09T07:12:29;9.10;;;5.55;;
79640;SDS011;69115;49.904;14.390;2023-10-09T07:15:01;11.00;;;5.85;;
79640;SDS011;69115;49.904;14.390;2023-10-09T07:17:46;10.52;;;5.82;;
79640;SDS011;69115;49.904;14.390;2023-10-09T07:20:12;8.80;;;5.38;;
79640;SDS011;69115;49.904;14.390;2023-10-09T07:23:01;10.68;;;5.85;;
79640;SDS011;69115;49.904;14.390;2023-10-09T07:25:46;8.13;;;5.28;;
79640;SDS011;69115;49.904;14.390;2023-10-09T07:28:22;11.60;;;5.78;;
79640;SDS011;69115;49.904;14.390;2023-10-09T07:31:07;11.30;;;5.90;;
79640;SDS011;69115;49.904;14.390;2023-10-09T07:33:35;11.68;;;6.80;;
79640;SDS011;69115;49.904;14.390;2023-10-09T07:36:18;12.30;;;6.50;;
79640;SDS011;69115;49.904;14.390;2023-10-09T07:38:59;12.88;;;6.50;;
79640;SDS011;69115;49.904;14.390;2023-10-09T07:41:29;13.27;;;7.65;;
79640;SDS011;69115;49.904;14.390;2023-10-09T07:43:58;11.20;;;7.43;;
79640;SDS011;69115;49.904;14.390;2023-10-09T07:46:44;15.82;;;7.50;;
79640;SDS011;69115;49.904;14.390;2023-10-09T07:49:38;12.98;;;7.05;;
79640;SDS011;69115;49.904;14.390;2023-10-09T07:52:03;11.93;;;7.18;;
79640;SDS011;69115;49.904;14.390;2023-10-09T07:54:30;10.95;;;6.38;;
79640;SDS011;69115;49.904;14.390;2023-10-09T07:56:59;11.05;;;6.22;;
79640;SDS011;69115;49.904;14.390;2023-10-09T07:59:34;12.80;;;6.57;;
79640;SDS011;69115;49.904;14.390;2023-10-09T08:02:06;11.65;;;6.68;;
79640;SDS011;69115;49.904;14.390;2023-10-09T08:04:38;12.00;;;6.72;;
79640;SDS011;69115;49.904;14.390;2023-10-09T08:07:13;12.80;;;7.20;;
79640;SDS011;69115;49.904;14.390;2023-10-09T08:09:51;13.60;;;7.32;;
79640;SDS011;69115;49.904;14.390;2023-10-09T08:12:35;15.95;;;7.97;;
79640;SDS011;69115;49.904;14.390;2023-10-09T08:15:09;11.95;;;7.03;;
79640;SDS011;69115;49.904;14.390;2023-10-09T08:17:49;14.15;;;7.85;;
79640;SDS011;69115;49.904;14.390;2023-10-09T08:20:40;12.30;;;8.00;;
79640;SDS011;69115;49.904;14.390;2023-10-09T08:23:24;14.63;;;7.75;;
79640;SDS011;69115;49.904;14.390;2023-10-09T08:26:08;13.13;;;7.57;;
79640;SDS011;69115;49.904;14.390;2023-10-09T08:28:40;13.07;;;8.00;;
79640;SDS011;69115;49.904;14.390;2023-10-09T08:31:18;14.88;;;8.23;;
79640;SDS011;69115;49.904;14.390;2023-10-09T08:33:47;13.68;;;8.48;;
79640;SDS011;69115;49.904;14.390;2023-10-09T08:36:23;12.38;;;7.90;;
79640;SDS011;69115;49.904;14.390;2023-10-09T08:38:53;13.73;;;7.90;;
79640;SDS011;69115;49.904;14.390;2023-10-09T08:41:23;15.48;;;8.45;;
79640;SDS011;69115;49.904;14.390;2023-10-09T08:46:18;19.35;;;9.35;;
79640;SDS011;69115;49.904;14.390;2023-10-09T08:48:45;19.05;;;8.82;;
79640;SDS011;69115;49.904;14.390;2023-10-09T08:51:11;16.23;;;9.38;;
79640;SDS011;69115;49.904;14.390;2023-10-09T08:53:37;13.38;;;8.90;;
79640;SDS011;69115;49.904;14.390;2023-10-09T08:56:08;14.55;;;8.88;;
79640;SDS011;69115;49.904;14.390;2023-10-09T08:58:35;17.42;;;9.10;;
79640;SDS011;69115;49.904;14.390;2023-10-09T09:01:03;16.25;;;8.55;;
79640;SDS011;69115;49.904;14.390;2023-10-09T09:03:39;16.50;;;9.32;;
79640;SDS011;69115;49.904;14.390;2023-10-09T09:06:09;17.23;;;9.18;;
79640;SDS011;69115;49.904;14.390;2023-10-09T09:08:35;17.25;;;9.65;;
79640;SDS011;69115;49.904;14.390;2023-10-09T09:16:17;29.40;;;13.63;;
79640;SDS011;69115;49.904;14.390;2023-10-09T09:18:53;19.90;;;9.90;;
79640;SDS011;69115;49.904;14.390;2023-10-09T09:21:28;15.50;;;8.25;;
79640;SDS011;69115;49.904;14.390;2023-10-09T09:23:55;18.88;;;8.30;;
79640;SDS011;69115;49.904;14.390;2023-10-09T09:26:33;16.15;;;8.38;;
79640;SDS011;69115;49.904;14.390;2023-10-09T09:29:01;18.85;;;9.20;;
79640;SDS011;69115;49.904;14.390;2023-10-09T09:31:28;17.02;;;8.40;;
79640;SDS011;69115;49.904;14.390;2023-10-09T09:33:56;17.27;;;8.05;;
79640;SDS011;69115;49.904;14.390;2023-10-09T09:36:28;16.85;;;8.20;;
79640;SDS011;69115;49.904;14.390;2023-10-09T09:38:59;15.23;;;8.18;;
79640;SDS011;69115;49.904;14.390;2023-10-09T09:41:26;19.58;;;9.10;;
79640;SDS011;69115;49.904;14.390;2023-10-09T09:43:56;16.13;;;8.38;;
79640;SDS011;69115;49.904;14.390;2023-10-09T09:46:28;13.05;;;8.35;;
79640;SDS011;69115;49.904;14.390;2023-10-09T09:49:00;14.80;;;7.40;;
79640;SDS011;69115;49.904;14.390;2023-10-09T09:51:26;15.88;;;8.13;;
79640;SDS011;69115;49.904;14.390;2023-10-09T09:53:55;18.63;;;7.78;;
79640;SDS011;69115;49.904;14.390;2023-10-09T09:56:20;13.60;;;7.03;;
79640;SDS011;69115;49.904;14.390;2023-10-09T09:58:50;14.93;;;7.20;;
79640;SDS011;69115;49.904;14.390;2023-10-09T10:01:20;14.80;;;6.82;;
79640;SDS011;69115;49.904;14.390;2023-10-09T10:04:07;9.93;;;6.50;;
79640;SDS011;69115;49.904;14.390;2023-10-09T10:06:39;25.00;;;12.98;;
79640;SDS011;69115;49.904;14.390;2023-10-09T10:09:08;14.68;;;7.85;;
79640;SDS011;69115;49.904;14.390;2023-10-09T10:11:46;14.38;;;7.20;;
79640;SDS011;69115;49.904;14.390;2023-10-09T10:14:17;12.80;;;6.57;;
79640;SDS011;69115;49.904;14.390;2023-10-09T10:20:13;16.00;;;6.47;;
79640;SDS011;69115;49.904;14.390;2023-10-09T10:22:26;11.25;;;6.38;;
79640;SDS011;69115;49.904;14.390;2023-10-09T10:24:53;13.95;;;7.05;;
79640;SDS011;69115;49.904;14.390;2023-10-09T10:27:20;13.20;;;6.95;;
79640;SDS011;69115;49.904;14.390;2023-10-09T10:35:41;13.00;;;6.57;;
79640;SDS011;69115;49.904;14.390;2023-10-09T10:38:25;16.50;;;9.75;;
79640;SDS011;69115;49.904;14.390;2023-10-09T10:41:07;18.33;;;9.40;;
79640;SDS011;69115;49.904;14.390;2023-10-09T10:43:36;14.73;;;7.60;;
79640;SDS011;69115;49.904;14.390;2023-10-09T10:46:17;13.45;;;6.70;;
79640;SDS011;69115;49.904;14.390;2023-10-09T10:48:48;13.00;;;6.60;;
79640;SDS011;69115;49.904;14.390;2023-10-09T10:51:14;12.43;;;6.80;;
79640;SDS011;69115;49.904;14.390;2023-10-09T10:53:52;10.88;;;6.43;;
79640;SDS011;69115;49.904;14.390;2023-10-09T10:56:24;14.02;;;7.20;;
79640;SDS011;69115;49.904;14.390;2023-10-09T10:59:10;13.05;;;6.32;;
79640;SDS011;69115;49.904;14.390;2023-10-09T11:01:36;12.55;;;6.82;;
79640;SDS011;69115;49.904;14.390;2023-10-09T11:04:20;14.45;;;6.35;;
79640;SDS011;69115;49.904;14.390;2023-10-09T11:06:58;11.60;;;6.45;;
79640;SDS011;69115;49.904;14.390;2023-10-09T11:09:49;13.27;;;6.40;;
79640;SDS011;69115;49.904;14.390;2023-10-09T11:15:07;14.20;;;6.50;;
79640;SDS011;69115;49.904;14.390;2023-10-09T11:20:44;13.35;;;6.65;;
79640;SDS011;69115;49.904;14.390;2023-10-09T11:23:22;11.80;;;6.68;;
79640;SDS011;69115;49.904;14.390;2023-10-09T11:26:30;15.38;;;6.97;;
79640;SDS011;69115;49.904;14.390;2023-10-09T11:29:14;14.00;;;7.32;;
79640;SDS011;69115;49.904;14.390;2023-10-09T11:31:58;13.35;;;6.60;;
79640;SDS011;69115;49.904;14.390;2023-10-09T11:34:25;14.32;;;6.47;;
79640;SDS011;69115;49.904;14.390;2023-10-09T11:37:00;14.18;;;7.13;;
79640;SDS011;69115;49.904;14.390;2023-10-09T11:39:54;14.98;;;7.88;;
79640;SDS011;69115;49.904;14.390;2023-10-09T11:42:21;14.57;;;7.57;;
79640;SDS011;69115;49.904;14.390;2023-10-09T11:45:23;12.70;;;6.97;;
79640;SDS011;69115;49.904;14.390;2023-10-09T11:47:53;18.30;;;7.03;;
79640;SDS011;69115;49.904;14.390;2023-10-09T11:50:41;14.02;;;7.03;;
79640;SDS011;69115;49.904;14.390;2023-10-09T11:53:18;13.10;;;6.93;;
79640;SDS011;69115;49.904;14.390;2023-10-09T11:55:47;15.30;;;7.80;;
79640;SDS011;69115;49.904;14.390;2023-10-09T11:58:21;14.27;;;7.22;;
79640;SDS011;69115;49.904;14.390;2023-10-09T12:03:16;15.45;;;7.43;;
79640;SDS011;69115;49.904;14.390;2023-10-09T12:05:48;14.32;;;6.90;;
79640;SDS011;69115;49.904;14.390;2023-10-09T12:08:14;14.18;;;7.32;;
79640;SDS011;69115;49.904;14.390;2023-10-09T12:10:41;16.80;;;7.22;;
79640;SDS011;69115;49.904;14.390;2023-10-09T12:13:07;14.75;;;6.60;;
79640;SDS011;69115;49.904;14.390;2023-10-09T12:15:33;11.65;;;6.90;;
79640;SDS011;69115;49.904;14.390;2023-10-09T12:18:05;18.65;;;7.35;;
79640;SDS011;69115;49.904;14.390;2023-10-09T12:20:39;13.50;;;7.18;;
79640;SDS011;69115;49.904;14.390;2023-10-09T12:23:05;12.73;;;7.68;;
79640;SDS011;69115;49.904;14.390;2023-10-09T12:25:32;13.57;;;7.30;;
79640;SDS011;69115;49.904;14.390;2023-10-09T12:27:58;13.40;;;6.57;;
79640;SDS011;69115;49.904;14.390;2023-10-09T12:30:26;13.77;;;7.10;;
79640;SDS011;69115;49.904;14.390;2023-10-09T12:32:54;14.80;;;6.72;;
79640;SDS011;69115;49.904;14.390;2023-10-09T12:37:49;15.93;;;6.72;;
79640;SDS011;69115;49.904;14.390;2023-10-09T12:40:15;12.02;;;6.20;;
79640;SDS011;69115;49.904;14.390;2023-10-09T12:42:49;15.75;;;6.30;;
79640;SDS011;69115;49.904;14.390;2023-10-09T12:45:15;13.85;;;6.80;;
79640;SDS011;69115;49.904;14.390;2023-10-09T12:47:42;14.65;;;6.30;;
79640;SDS011;69115;49.904;14.390;2023-10-09T12:50:08;13.00;;;6.35;;
79640;SDS011;69115;49.904;14.390;2023-10-09T12:52:39;11.18;;;6.50;;
79640;SDS011;69115;49.904;14.390;2023-10-09T12:55:05;11.52;;;6.38;;
79640;SDS011;69115;49.904;14.390;2023-10-09T12:57:33;13.18;;;6.63;;
79640;SDS011;69115;49.904;14.390;2023-10-09T12:59:58;16.30;;;7.20;;
79640;SDS011;69115;49.904;14.390;2023-10-09T13:02:24;12.35;;;6.25;;
79640;SDS011;69115;49.904;14.390;2023-10-09T13:04:56;12.48;;;6.95;;
79640;SDS011;69115;49.904;14.390;2023-10-09T13:07:22;15.45;;;7.20;;
79640;SDS011;69115;49.904;14.390;2023-10-09T13:09:48;14.52;;;6.63;;
79640;SDS011;69115;49.904;14.390;2023-10-09T13:12:32;12.50;;;6.60;;
79640;SDS011;69115;49.904;14.390;2023-10-09T13:14:58;16.85;;;6.88;;
79640;SDS011;69115;49.904;14.390;2023-10-09T13:17:23;10.13;;;6.13;;
79640;SDS011;69115;49.904;14.390;2023-10-09T13:19:52;14.35;;;6.82;;
79640;SDS011;69115;49.904;14.390;2023-10-09T13:22:17;14.55;;;6.65;;
79640;SDS011;69115;49.904;14.390;2023-10-09T13:24:43;14.00;;;7.03;;
79640;SDS011;69115;49.904;14.390;2023-10-09T13:27:09;14.82;;;6.95;;
79640;SDS011;69115;49.904;14.390;2023-10-09T13:29:36;14.48;;;7.00;;
79640;SDS011;69115;49.904;14.390;2023-10-09T13:32:05;12.93;;;6.28;;
79640;SDS011;69115;49.904;14.390;2023-10-09T13:34:39;14.32;;;7.03;;
79640;SDS011;69115;49.904;14.390;2023-10-09T13:37:09;15.95;;;6.38;;
79640;SDS011;69115;49.904;14.390;2023-10-09T13:39:38;12.95;;;6.78;;
79640;SDS011;69115;49.904;14.390;2023-10-09T13:42:05;14.95;;;7.18;;
79640;SDS011;69115;49.904;14.390;2023-10-09T13:44:32;13.20;;;6.93;;
79640;SDS011;69115;49.904;14.390;2023-10-09T13:47:05;13.50;;;6.88;;
79640;SDS011;69115;49.904;14.390;2023-10-09T13:49:31;13.95;;;6.55;;
79640;SDS011;69115;49.904;14.390;2023-10-09T13:52:02;11.98;;;6.75;;
79640;SDS011;69115;49.904;14.390;2023-10-09T13:54:28;14.80;;;7.03;;
79640;SDS011;69115;49.904;14.390;2023-10-09T13:56:58;12.88;;;6.75;;
79640;SDS011;69115;49.904;14.390;2023-10-09T13:59:29;14.75;;;6.53;;
79640;SDS011;69115;49.904;14.390;2023-10-09T14:01:57;12.90;;;7.00;;
79640;SDS011;69115;49.904;14.390;2023-10-09T14:04:24;13.48;;;6.78;;
79640;SDS011;69115;49.904;14.390;2023-10-09T14:06:53;14.00;;;6.60;;
79640;SDS011;69115;49.904;14.390;2023-10-09T14:09:22;15.18;;;7.15;;
79640;SDS011;69115;49.904;14.390;2023-10-09T14:12:03;13.25;;;6.65;;
79640;SDS011;69115;49.904;14.390;2023-10-09T14:14:41;14.27;;;6.93;;
79640;SDS011;69115;49.904;14.390;2023-10-09T14:17:32;17.58;;;7.28;;
79640;SDS011;69115;49.904;14.390;2023-10-09T14:19:58;13.73;;;6.43;;
79640;SDS011;69115;49.904;14.390;2023-10-09T14:22:46;14.10;;;6.85;;
79640;SDS011;69115;49.904;14.390;2023-10-09T14:25:17;12.45;;;6.63;;
79640;SDS011;69115;49.904;14.390;2023-10-09T14:27:45;17.35;;;6.95;;
79640;SDS011;69115;49.904;14.390;2023-10-09T14:30:13;13.82;;;6.32;;
79640;SDS011;69115;49.904;14.390;2023-10-09T14:32:48;15.73;;;7.45;;
79640;SDS011;69115;49.904;14.390;2023-10-09T14:35:21;18.92;;;8.02;;
79640;SDS011;69115;49.904;14.390;2023-10-09T14:37:52;15.80;;;7.25;;
79640;SDS011;69115;49.904;14.390;2023-10-09T14:40:20;14.82;;;7.80;;
79640;SDS011;69115;49.904;14.390;2023-10-09T14:42:57;13.48;;;7.00;;
79640;SDS011;69115;49.904;14.390;2023-10-09T14:45:24;16.08;;;7.53;;
79640;SDS011;69115;49.904;14.390;2023-10-09T14:47:51;15.52;;;7.30;;
79640;SDS011;69115;49.904;14.390;2023-10-09T14:50:19;13.60;;;7.55;;
79640;SDS011;69115;49.904;14.390;2023-10-09T14:52:48;15.07;;;7.55;;
79640;SDS011;69115;49.904;14.390;2023-10-09T14:55:15;12.98;;;7.68;;
79640;SDS011;69115;49.904;14.390;2023-10-09T14:57:46;16.15;;;7.75;;
79640;SDS011;69115;49.904;14.390;2023-10-09T15:00:14;15.60;;;7.00;;
79640;SDS011;69115;49.904;14.390;2023-10-09T15:02:40;17.23;;;7.90;;
79640;SDS011;69115;49.904;14.390;2023-10-09T15:05:06;14.85;;;7.63;;
79640;SDS011;69115;49.904;14.390;2023-10-09T15:07:36;12.68;;;7.20;;
79640;SDS011;69115;49.904;14.390;2023-10-09T15:10:04;15.45;;;7.68;;
79640;SDS011;69115;49.904;14.390;2023-10-09T15:12:30;14.85;;;7.78;;
79640;SDS011;69115;49.904;14.390;2023-10-09T15:14:55;15.68;;;7.82;;
79640;SDS011;69115;49.904;14.390;2023-10-09T15:17:22;13.63;;;7.25;;
79640;SDS011;69115;49.904;14.390;2023-10-09T15:19:49;13.93;;;7.07;;
79640;SDS011;69115;49.904;14.390;2023-10-09T15:22:20;12.70;;;7.07;;
79640;SDS011;69115;49.904;14.390;2023-10-09T15:24:46;12.65;;;6.90;;
79640;SDS011;69115;49.904;14.390;2023-10-09T15:27:11;13.75;;;7.82;;
79640;SDS011;69115;49.904;14.390;2023-10-09T15:29:38;14.80;;;7.03;;
79640;SDS011;69115;49.904;14.390;2023-10-09T15:34:39;13.00;;;7.80;;